Terminal Aerodrome Forecast
Issued by NWS Twin Cities, MN

Home | Current Version | Previous Version | Graphics & Text | Print | Product List | Glossary On
Versions: 1 2 3 4 5 6 7 8 9 10 11 12 13 14 15 16 17 18 19
755
FTUS43 KMPX 081139
TAFEAU
TAF
KEAU 081139Z 0812/0912 31010G18KT 4SM -SN OVC020
      TEMPO 0812/0815 2SM -SN
     FM081700 32015G24KT 6SM -SN OVC020
      TEMPO 0817/0821 5SM -SN BLSN=

USA.gov is the U.S. government's official web portal to all federal, state and local government web resources and services.